createdAt,value
2022-09-25T00:55:49.397Z,3.10
2022-09-25T00:58:20.354Z,3.03
2022-09-25T01:00:48.153Z,2.50
2022-09-25T01:03:16.072Z,2.37
2022-09-25T01:05:44.326Z,2.43
2022-09-25T01:08:13.760Z,2.50
2022-09-25T01:10:42.092Z,2.67
2022-09-25T01:13:09.913Z,2.10
2022-09-25T01:15:40.773Z,2.60
2022-09-25T01:18:16.057Z,2.40
2022-09-25T01:21:06.246Z,2.47
2022-09-25T01:23:56.881Z,2.20
2022-09-25T01:26:35.533Z,2.60
2022-09-25T01:29:07.931Z,2.80
2022-09-25T01:31:36.585Z,2.47
2022-09-25T01:34:10.240Z,2.30
2022-09-25T01:36:39.803Z,2.40
2022-09-25T01:39:10.633Z,2.20
2022-09-25T01:41:41.517Z,2.23
2022-09-25T01:44:13.656Z,2.30
2022-09-25T01:46:43.787Z,2.40
2022-09-25T01:49:15.281Z,2.50
2022-09-25T01:51:44.901Z,2.23
2022-09-25T01:54:14.157Z,2.60
2022-09-25T01:56:44.197Z,2.60
2022-09-25T01:59:15.212Z,2.53
2022-09-25T02:01:44.065Z,2.50
2022-09-25T02:04:13.839Z,2.70
2022-09-25T02:06:42.271Z,2.30
2022-09-25T02:09:11.479Z,2.60
2022-09-25T02:11:40.945Z,2.10
2022-09-25T02:14:10.254Z,2.33
2022-09-25T02:16:43.592Z,2.30
2022-09-25T02:19:29.280Z,1.93
2022-09-25T02:22:00.281Z,2.13
2022-09-25T02:24:30.445Z,2.30
2022-09-25T02:26:58.329Z,2.60
2022-09-25T02:29:26.311Z,2.60
2022-09-25T02:31:57.056Z,2.50
2022-09-25T02:34:24.980Z,2.30
2022-09-25T02:36:52.879Z,2.40
2022-09-25T02:39:22.568Z,2.30
2022-09-25T02:42:02.632Z,2.20
2022-09-25T02:44:34.662Z,2.43
2022-09-25T02:47:14.237Z,2.20
2022-09-25T02:49:46.416Z,2.23
2022-09-25T02:52:15.778Z,2.60
2022-09-25T02:54:46.814Z,2.30
2022-09-25T02:57:17.190Z,2.70
2022-09-25T02:59:46.939Z,2.20
2022-09-25T03:02:16.280Z,2.30
2022-09-25T03:04:44.308Z,2.50
2022-09-25T03:07:12.210Z,2.63
2022-09-25T03:09:39.080Z,2.37
2022-09-25T03:12:07.136Z,2.30
2022-09-25T03:14:35.035Z,2.20
2022-09-25T03:17:04.809Z,2.70
2022-09-25T03:19:34.895Z,2.60
2022-09-25T03:22:02.929Z,2.50
2022-09-25T03:24:31.411Z,2.77
2022-09-25T03:26:59.365Z,2.80
2022-09-25T03:29:27.379Z,2.40
2022-09-25T03:31:55.532Z,2.60
2022-09-25T03:34:23.430Z,2.57
2022-09-25T03:36:52.723Z,2.30
2022-09-25T03:39:20.625Z,2.23
2022-09-25T03:41:48.915Z,2.67
2022-09-25T03:44:16.805Z,2.40
2022-09-25T03:46:44.704Z,2.17
2022-09-25T03:49:12.876Z,2.50
2022-09-25T03:51:42.119Z,2.43
2022-09-25T03:54:11.547Z,2.27
2022-09-25T03:56:39.705Z,2.57
2022-09-25T03:59:07.668Z,2.60
2022-09-25T04:01:37.138Z,2.00
2022-09-25T04:04:05.125Z,2.20
2022-09-25T04:06:33.008Z,2.20
2022-09-25T04:09:00.900Z,2.37
2022-09-25T04:11:30.125Z,1.97
2022-09-25T04:13:58.070Z,2.20
2022-09-25T04:16:26.102Z,2.20
2022-09-25T04:18:54.057Z,2.30
2022-09-25T04:21:21.924Z,2.40
2022-09-25T04:24:03.743Z,1.93
2022-09-25T04:26:33.207Z,2.93
2022-09-25T04:29:01.647Z,2.20
2022-09-25T04:31:29.799Z,2.50
2022-09-25T04:33:56.784Z,2.30
2022-09-25T04:36:24.686Z,2.70
2022-09-25T04:38:52.636Z,2.47
2022-09-25T04:41:20.798Z,2.50
2022-09-25T04:43:50.134Z,2.33
2022-09-25T04:46:22.359Z,2.30
2022-09-25T04:48:50.855Z,2.83
2022-09-25T04:51:18.815Z,2.40
2022-09-25T04:53:47.326Z,2.30
2022-09-25T04:56:16.803Z,2.67
2022-09-25T04:58:46.150Z,2.60
2022-09-25T05:01:15.630Z,2.67
2022-09-25T05:03:43.945Z,2.47
2022-09-25T05:06:11.907Z,2.50
2022-09-25T05:08:39.825Z,2.87
2022-09-25T05:11:07.967Z,3.07
2022-09-25T05:13:35.862Z,2.97
2022-09-25T05:16:03.815Z,3.17
2022-09-25T05:21:04.302Z,2.53
2022-09-25T05:23:32.241Z,2.50
2022-09-25T05:26:02.575Z,2.60
2022-09-25T05:28:30.899Z,2.70
2022-09-25T05:31:00.186Z,2.40
2022-09-25T05:33:28.152Z,2.60
2022-09-25T05:36:00.993Z,2.50
2022-09-25T05:38:29.254Z,2.73
2022-09-25T05:40:57.325Z,2.50
2022-09-25T05:43:25.475Z,2.80
2022-09-25T05:45:56.303Z,2.83
2022-09-25T05:48:24.348Z,3.43
2022-09-25T05:50:53.291Z,2.80
2022-09-25T05:53:22.609Z,2.90
2022-09-25T05:55:51.650Z,2.40
2022-09-25T05:58:19.654Z,2.60
2022-09-25T06:00:47.705Z,2.60
2022-09-25T06:03:15.813Z,2.23
2022-09-25T06:05:46.169Z,2.30
2022-09-25T06:08:14.302Z,2.63
2022-09-25T06:10:45.081Z,2.33
2022-09-25T06:13:14.919Z,2.33
2022-09-25T06:15:42.889Z,2.43
2022-09-25T06:18:11.215Z,2.40
2022-09-25T06:20:39.101Z,2.47
2022-09-25T06:23:07.740Z,2.50
2022-09-25T06:25:36.513Z,2.70
2022-09-25T06:28:09.775Z,3.27
2022-09-25T06:30:38.405Z,2.80
2022-09-25T06:33:07.767Z,2.83
2022-09-25T06:35:35.708Z,2.70
2022-09-25T06:38:06.677Z,3.23
2022-09-25T06:40:34.867Z,3.03
2022-09-25T06:43:03.288Z,2.93
2022-09-25T06:45:34.941Z,2.70
2022-09-25T06:48:08.296Z,2.80
2022-09-25T06:50:40.721Z,2.70
2022-09-25T06:53:12.241Z,2.70
2022-09-25T06:55:40.259Z,2.50
2022-09-25T06:58:09.516Z,2.40
2022-09-25T07:00:38.885Z,2.40
2022-09-25T07:03:25.019Z,2.33
2022-09-25T07:05:53.003Z,2.53
2022-09-25T07:08:22.526Z,2.63
2022-09-25T07:10:51.224Z,2.67
2022-09-25T07:13:19.258Z,2.60
2022-09-25T07:15:53.774Z,2.90
2022-09-25T07:18:25.517Z,2.70
2022-09-25T07:20:53.987Z,2.63
2022-09-25T07:23:22.598Z,2.60
2022-09-25T07:25:50.485Z,2.60
2022-09-25T07:28:20.085Z,2.37
2022-09-25T07:30:48.258Z,3.00
2022-09-25T07:33:17.815Z,2.70
2022-09-25T07:35:45.937Z,2.73
2022-09-25T07:38:13.956Z,2.70
2022-09-25T07:40:42.007Z,3.13
2022-09-25T07:43:10.564Z,2.90
2022-09-25T07:45:38.785Z,2.70
2022-09-25T07:48:07.387Z,2.40
2022-09-25T07:50:36.706Z,2.80
2022-09-25T07:53:04.961Z,3.23
2022-09-25T07:55:32.962Z,2.90
2022-09-25T07:58:00.859Z,3.07
2022-09-25T08:00:31.802Z,3.00
2022-09-25T08:03:00.125Z,3.03
2022-09-25T08:05:28.844Z,3.30
2022-09-25T08:08:04.155Z,3.20
2022-09-25T08:10:32.674Z,2.77
2022-09-25T08:13:01.041Z,3.43
2022-09-25T08:15:29.146Z,3.30
2022-09-25T08:17:57.289Z,3.30
2022-09-25T08:20:25.158Z,3.33
2022-09-25T08:22:54.944Z,3.23
2022-09-25T08:25:24.353Z,3.13
2022-09-25T08:27:52.251Z,3.60
2022-09-25T08:30:20.317Z,3.07
2022-09-25T08:32:48.415Z,3.23
2022-09-25T08:35:16.462Z,3.90
2022-09-25T08:37:45.089Z,3.73
2022-09-25T08:40:17.807Z,3.97
2022-09-25T08:42:47.992Z,3.17
2022-09-25T08:45:42.053Z,3.60
2022-09-25T08:48:28.560Z,3.20
2022-09-25T08:50:56.444Z,3.50
2022-09-25T08:53:25.408Z,3.20
2022-09-25T08:56:10.566Z,3.57
2022-09-25T08:58:43.264Z,3.63
2022-09-25T09:01:14.240Z,3.03
2022-09-25T09:03:46.087Z,3.13
2022-09-25T09:06:15.523Z,3.20
2022-09-25T09:08:44.644Z,3.03
2022-09-25T09:11:13.982Z,3.10
2022-09-25T09:13:51.995Z,3.23
2022-09-25T09:16:24.856Z,2.77
2022-09-25T09:18:55.621Z,2.83
2022-09-25T09:21:26.631Z,2.67
2022-09-25T09:24:00.332Z,2.30
2022-09-25T09:26:37.669Z,2.80
2022-09-25T09:29:29.327Z,2.50
2022-09-25T09:32:01.779Z,2.97
2022-09-25T09:37:49.380Z,3.10
2022-09-25T09:40:22.363Z,3.33
2022-09-25T09:42:53.801Z,3.03
2022-09-25T09:45:26.106Z,2.60
2022-09-25T09:47:57.433Z,2.53
2022-09-25T09:50:32.710Z,2.03
2022-09-25T09:53:02.758Z,2.03
2022-09-25T09:55:36.556Z,1.70
2022-09-25T09:58:08.686Z,1.53
2022-09-25T10:00:39.119Z,1.43
2022-09-25T10:03:13.150Z,1.50
2022-09-25T10:05:43.967Z,1.30
2022-09-25T10:08:11.837Z,1.43
2022-09-25T10:10:40.721Z,1.20
2022-09-25T10:13:15.258Z,1.10
2022-09-25T10:15:48.342Z,1.40
2022-09-25T10:18:16.402Z,1.10
2022-09-25T10:20:45.866Z,1.23
2022-09-25T10:23:23.405Z,1.33
2022-09-25T10:25:55.745Z,1.10
2022-09-25T10:28:28.000Z,1.10
2022-09-25T10:30:58.215Z,1.20
2022-09-25T10:33:26.515Z,1.37
2022-09-25T10:35:55.128Z,1.20
2022-09-25T10:38:42.145Z,1.33
2022-09-25T10:41:12.236Z,1.60
2022-09-25T10:43:55.973Z,1.20
2022-09-25T10:46:43.802Z,1.23
2022-09-25T10:49:32.901Z,1.50
2022-09-25T10:52:06.451Z,1.30
2022-09-25T10:54:37.812Z,1.27
2022-09-25T10:57:18.254Z,1.40
2022-09-25T10:59:49.473Z,1.17
2022-09-25T11:02:28.406Z,1.50
2022-09-25T11:04:56.960Z,1.10
2022-09-25T11:07:27.880Z,0.90
2022-09-25T11:09:59.986Z,1.20
2022-09-25T11:12:29.931Z,0.90
2022-09-25T11:14:58.899Z,0.90
2022-09-25T11:17:33.445Z,1.00
2022-09-25T11:20:14.088Z,1.00
2022-09-25T11:22:42.289Z,0.90
2022-09-25T11:25:14.044Z,0.70
2022-09-25T11:27:43.414Z,1.10
2022-09-25T11:30:13.089Z,0.97
2022-09-25T11:32:51.706Z,0.90
2022-09-25T11:35:37.429Z,0.90
2022-09-25T11:38:11.576Z,1.00
2022-09-25T11:41:00.963Z,1.00
2022-09-25T11:43:37.564Z,1.20
2022-09-25T11:46:19.674Z,0.90
2022-09-25T11:48:54.506Z,1.20
2022-09-25T11:51:29.634Z,1.00
2022-09-25T11:54:25.345Z,1.20
2022-09-25T11:56:54.370Z,1.00
2022-09-25T11:59:28.902Z,0.90
2022-09-25T12:01:59.741Z,1.10
2022-09-25T12:04:56.084Z,1.20
2022-09-25T12:07:39.918Z,0.90
2022-09-25T12:10:25.092Z,1.10
2022-09-25T12:12:57.741Z,1.07
2022-09-25T12:15:27.772Z,1.10
2022-09-25T12:18:05.246Z,0.90
2022-09-25T12:20:38.757Z,1.10
2022-09-25T12:23:18.395Z,1.00
2022-09-25T12:25:53.148Z,1.17
2022-09-25T12:28:27.187Z,0.97
2022-09-25T12:31:02.244Z,1.10
2022-09-25T12:33:36.449Z,1.23
2022-09-25T12:36:09.164Z,1.37
2022-09-25T12:38:40.996Z,1.57
2022-09-25T12:41:10.931Z,1.40
2022-09-25T12:43:43.410Z,1.40
2022-09-25T12:46:15.252Z,1.00
2022-09-25T12:48:45.260Z,1.20
2022-09-25T12:51:21.793Z,1.33
2022-09-25T12:53:51.901Z,1.20
2022-09-25T12:56:22.817Z,1.40
2022-09-25T12:59:00.966Z,1.10
2022-09-25T13:01:33.743Z,1.27
2022-09-25T13:04:10.329Z,1.40
2022-09-25T13:06:43.596Z,1.47
2022-09-25T13:09:22.640Z,1.60
2022-09-25T13:11:52.618Z,1.40
2022-09-25T13:14:29.783Z,1.63
2022-09-25T13:16:58.351Z,1.70
2022-09-25T13:19:27.371Z,2.40
2022-09-25T13:22:03.732Z,1.83
2022-09-25T13:24:32.458Z,1.70
2022-09-25T13:27:03.392Z,2.17
2022-09-25T13:29:35.463Z,1.90
2022-09-25T13:32:04.843Z,1.83
2022-09-25T13:34:35.462Z,1.87
2022-09-25T13:37:05.427Z,1.60
2022-09-25T13:39:53.694Z,1.57
2022-09-25T13:42:27.210Z,1.73
2022-09-25T13:45:07.939Z,2.10
2022-09-25T13:47:57.334Z,1.20
2022-09-25T13:50:42.833Z,1.57
2022-09-25T13:53:34.994Z,1.00
2022-09-25T13:56:18.589Z,1.27
2022-09-25T13:59:26.507Z,0.90
2022-09-25T14:02:00.025Z,1.50
2022-09-25T14:04:33.122Z,2.20
2022-09-25T14:07:23.106Z,1.60
2022-09-25T14:09:54.771Z,0.90
2022-09-25T14:12:39.177Z,1.00
2022-09-25T14:15:08.601Z,1.33
2022-09-25T14:17:39.431Z,1.30
2022-09-25T14:20:11.197Z,1.20
2022-09-25T14:22:43.191Z,1.60
2022-09-25T14:25:28.327Z,0.90
2022-09-25T14:27:56.463Z,1.30
2022-09-25T14:30:29.126Z,1.10
2022-09-25T14:33:15.991Z,1.03
2022-09-25T14:35:47.752Z,1.03
2022-09-25T14:38:36.056Z,1.43
2022-09-25T14:41:30.764Z,1.10
2022-09-25T14:44:17.917Z,0.97
2022-09-25T14:46:46.146Z,1.17
2022-09-25T14:49:20.108Z,1.00
2022-09-25T14:51:48.898Z,1.07
2022-09-25T14:54:19.362Z,0.90
2022-09-25T14:56:50.274Z,1.10
2022-09-25T14:59:19.309Z,1.00
2022-09-25T15:01:48.260Z,1.00
2022-09-25T15:04:26.766Z,1.07
2022-09-25T15:07:00.626Z,0.80
2022-09-25T15:09:30.673Z,0.80
2022-09-25T15:12:00.589Z,1.00
2022-09-25T15:14:28.734Z,1.10
2022-09-25T15:17:14.356Z,1.00
2022-09-25T15:19:47.536Z,0.73
2022-09-25T15:22:18.712Z,1.00
2022-09-25T15:24:48.553Z,0.85
2022-09-25T15:27:18.275Z,0.85
2022-09-25T15:29:47.238Z,1.02
2022-09-25T15:32:18.448Z,1.10
2022-09-25T15:34:47.170Z,1.30
2022-09-25T15:37:21.061Z,1.13
2022-09-25T15:39:49.023Z,1.30
2022-09-25T15:42:18.333Z,1.20
2022-09-25T15:44:46.701Z,1.13
2022-09-25T15:47:52.058Z,1.30
2022-09-25T15:50:24.269Z,1.20
2022-09-25T15:52:52.689Z,1.20
2022-09-25T15:55:20.797Z,1.20
2022-09-25T15:57:50.556Z,1.10
2022-09-25T16:00:37.299Z,1.03
2022-09-25T16:03:24.474Z,1.13
2022-09-25T16:05:52.937Z,1.20
2022-09-25T16:08:29.419Z,1.10
2022-09-25T16:11:16.801Z,1.20
2022-09-25T16:13:48.776Z,1.30
2022-09-25T16:16:22.155Z,1.10
2022-09-25T16:18:51.233Z,1.50
2022-09-25T16:21:24.709Z,1.13
2022-09-25T16:23:56.243Z,1.20
2022-09-25T16:26:26.498Z,1.20
2022-09-25T16:29:05.056Z,1.33
2022-09-25T16:31:34.136Z,1.40
2022-09-25T16:34:02.178Z,1.40
2022-09-25T16:36:37.916Z,1.23
2022-09-25T16:39:21.744Z,1.60
2022-09-25T16:41:49.939Z,1.70
2022-09-25T16:44:20.390Z,1.40
2022-09-25T16:47:05.741Z,1.73
2022-09-25T16:49:34.269Z,1.70
2022-09-25T16:52:04.691Z,1.57
2022-09-25T16:54:32.787Z,1.63
2022-09-25T16:57:02.446Z,1.43
2022-09-25T16:59:32.147Z,1.30
2022-09-25T17:02:01.928Z,1.53
2022-09-25T17:04:31.727Z,1.70
2022-09-25T17:07:02.104Z,1.30
2022-09-25T17:09:31.428Z,1.70
2022-09-25T17:12:01.469Z,1.67
2022-09-25T17:14:29.765Z,1.70
2022-09-25T17:16:59.182Z,1.40
2022-09-25T17:19:27.121Z,1.50
2022-09-25T17:21:56.227Z,2.00
2022-09-25T17:24:25.111Z,1.90
2022-09-25T17:26:53.130Z,1.87
2022-09-25T17:29:21.558Z,1.73
2022-09-25T17:31:49.512Z,1.80
2022-09-25T17:34:21.096Z,2.00
2022-09-25T17:36:49.203Z,1.83
2022-09-25T17:39:17.127Z,2.00
2022-09-25T17:41:45.097Z,1.80
2022-09-25T17:44:14.000Z,1.80
2022-09-25T17:46:42.132Z,1.70
2022-09-25T17:49:11.294Z,2.13
2022-09-25T17:51:40.767Z,1.87
2022-09-25T17:54:09.061Z,2.40
2022-09-25T17:56:40.444Z,1.77
2022-09-25T17:59:09.172Z,1.73
2022-09-25T18:01:39.802Z,1.83
2022-09-25T18:04:18.203Z,2.00
2022-09-25T18:06:47.507Z,1.73
2022-09-25T18:09:15.457Z,1.83
2022-09-25T18:11:46.985Z,1.50
2022-09-25T18:14:15.683Z,1.70
2022-09-25T18:16:44.440Z,2.07
2022-09-25T18:19:33.148Z,1.70
2022-09-25T18:22:25.305Z,1.47
2022-09-25T18:24:56.425Z,1.53
2022-09-25T18:27:25.058Z,1.70
2022-09-25T18:29:52.989Z,1.70
2022-09-25T18:32:20.952Z,1.50
2022-09-25T18:34:48.875Z,1.37
2022-09-25T18:37:18.165Z,1.50
2022-09-25T18:39:47.920Z,1.40
2022-09-25T18:42:15.870Z,1.30
2022-09-25T18:44:43.863Z,1.60
2022-09-25T18:47:11.905Z,1.73
2022-09-25T18:49:40.158Z,1.50
2022-09-25T18:52:08.093Z,1.33
2022-09-25T18:54:37.405Z,1.33
2022-09-25T18:57:05.320Z,1.60
2022-09-25T18:59:33.520Z,1.40
2022-09-25T19:02:02.047Z,1.67
2022-09-25T19:04:30.197Z,2.00
2022-09-25T19:06:58.247Z,1.80
2022-09-25T19:09:27.776Z,2.17
2022-09-25T19:11:57.234Z,1.77
2022-09-25T19:14:25.331Z,2.60
2022-09-25T19:16:53.367Z,3.23
2022-09-25T19:19:21.317Z,2.60
2022-09-25T19:21:49.329Z,1.73
2022-09-25T19:24:18.316Z,1.80
2022-09-25T19:26:46.376Z,1.60
2022-09-25T19:29:15.845Z,1.43
2022-09-25T19:31:44.358Z,1.30
2022-09-25T19:34:12.504Z,1.20
2022-09-25T19:36:40.724Z,1.63
2022-09-25T19:39:08.797Z,1.30
2022-09-25T19:41:38.034Z,1.30
2022-09-25T19:44:12.752Z,1.27
2022-09-25T19:46:43.470Z,1.50
2022-09-25T19:49:11.549Z,1.60
2022-09-25T19:51:39.529Z,1.13
2022-09-25T19:54:07.641Z,0.90
2022-09-25T19:56:40.569Z,1.30
2022-09-25T19:59:09.163Z,1.60
2022-09-25T20:01:38.327Z,1.37
2022-09-25T20:04:08.597Z,1.20
2022-09-25T20:06:38.077Z,1.60
2022-09-25T20:09:06.772Z,1.10
2022-09-25T20:11:35.963Z,1.23
2022-09-25T20:14:05.044Z,1.03
2022-09-25T20:16:33.843Z,1.17
2022-09-25T20:19:02.989Z,1.10
2022-09-25T20:21:33.781Z,1.30
2022-09-25T20:24:02.508Z,1.47
2022-09-25T20:26:30.603Z,1.50
2022-09-25T20:28:59.324Z,1.40
2022-09-25T20:31:27.611Z,1.20
2022-09-25T20:33:55.772Z,1.30
2022-09-25T20:36:24.046Z,1.50
2022-09-25T20:38:53.554Z,1.40
2022-09-25T20:41:21.917Z,1.70
2022-09-25T20:43:50.305Z,1.83
2022-09-25T20:46:19.621Z,1.57
2022-09-25T20:48:48.493Z,1.40
2022-09-25T20:51:18.663Z,1.50
2022-09-25T20:53:50.724Z,1.30
2022-09-25T20:56:20.410Z,1.63
2022-09-25T20:58:52.870Z,1.33
2022-09-25T21:01:23.475Z,1.70
2022-09-25T21:03:51.694Z,1.20
2022-09-25T21:06:20.395Z,1.30
2022-09-25T21:08:48.608Z,1.37
2022-09-25T21:11:16.500Z,1.13
2022-09-25T21:13:45.781Z,1.37
2022-09-25T21:16:15.008Z,1.30
2022-09-25T21:18:43.503Z,1.30
2022-09-25T21:21:12.410Z,1.40
2022-09-25T21:23:40.545Z,1.40
2022-09-25T21:26:10.342Z,1.40
2022-09-25T21:28:39.119Z,1.40
2022-09-25T21:31:10.411Z,1.47
2022-09-25T21:33:38.425Z,1.63
2022-09-25T21:36:06.713Z,1.57
2022-09-25T21:38:37.259Z,1.70
2022-09-25T21:41:06.364Z,1.50
2022-09-25T21:43:35.097Z,1.60
2022-09-25T21:46:03.995Z,1.60
2022-09-25T21:48:35.052Z,1.40
2022-09-25T21:51:03.409Z,1.43
2022-09-25T21:53:35.648Z,1.33
2022-09-25T21:56:04.800Z,1.40
2022-09-25T21:58:32.957Z,1.50
2022-09-25T22:01:05.589Z,1.60
2022-09-25T22:03:35.384Z,1.40
2022-09-25T22:06:04.066Z,1.80
2022-09-25T22:08:32.089Z,1.53
2022-09-25T22:11:00.524Z,1.40
2022-09-25T22:13:29.237Z,1.53
2022-09-25T22:16:01.509Z,1.97
2022-09-25T22:18:29.557Z,1.40
2022-09-25T22:20:58.855Z,1.80
2022-09-25T22:23:26.858Z,1.60
2022-09-25T22:25:54.825Z,1.33
2022-09-25T22:28:22.788Z,1.53
2022-09-25T22:30:51.192Z,1.63
2022-09-25T22:33:19.137Z,1.30
2022-09-25T22:35:46.997Z,1.60
2022-09-25T22:38:16.316Z,1.53
2022-09-25T22:40:44.272Z,1.37
2022-09-25T22:43:12.301Z,1.60
2022-09-25T22:45:40.732Z,1.50
2022-09-25T22:48:09.138Z,1.20
2022-09-25T22:50:37.056Z,1.70
2022-09-25T22:53:05.052Z,1.63
2022-09-25T22:55:34.952Z,1.60
2022-09-25T22:58:08.634Z,1.40
2022-09-25T23:00:37.089Z,1.70
2022-09-25T23:03:05.071Z,2.00
2022-09-25T23:05:36.736Z,1.60
2022-09-25T23:08:04.901Z,1.47
2022-09-25T23:10:55.241Z,1.80
2022-09-25T23:13:23.056Z,1.50
2022-09-25T23:15:51.219Z,1.60
2022-09-25T23:18:19.102Z,1.63
2022-09-25T23:20:46.980Z,1.40
2022-09-25T23:23:15.185Z,1.67
2022-09-25T23:25:46.522Z,1.67
2022-09-25T23:28:14.554Z,1.37
2022-09-25T23:30:42.706Z,1.20
2022-09-25T23:33:10.645Z,1.30
2022-09-25T23:35:38.558Z,1.60
2022-09-25T23:38:06.454Z,1.50
2022-09-25T23:40:34.446Z,1.70
2022-09-25T23:43:04.091Z,1.50
2022-09-25T23:45:32.078Z,1.83
2022-09-25T23:48:00.049Z,1.70
2022-09-25T23:50:28.057Z,1.20
2022-09-25T23:52:56.017Z,1.70
2022-09-25T23:55:23.874Z,1.13
2022-09-25T23:57:51.806Z,1.60
